Lloydminster Airport
CYLL : rendu visible

Aérodrome :











RETROUVEZ-NOUS SUR...

 
LOGIN :

S'inscrire | Disclaimer

   EN    FR    IT 

 









Légende :    VFR   VFR Marginal   IFR   IFR Intensif   IFR Très Intensif
Visi : 
Plafond : 
>= 8 km
>= 3000ft
5 à 8 km
1000 à 3000 ft
1500m à 5 km
500 à 1000 ft
800 à 1500m
200 à 500 ft
< 800m
< 200 ft
Symboles :   Orages  Brouillard  Fortes neiges  Fortes précipitations  Vent > 20 kt






- Altitude de l'aérodrome : 2193 ft
- Code IATA : YLL


CYLL - Lloydminster

DERNIER METAR :
  • 100700Z AUTO 23008KT 9SM CLR M21/M25 A3010 RMK SLP260

METARs EXPIRÉS :
  • 100600Z AUTO 23006KT 9SM CLR M22/M25 A3011 RMK SLP266
  • 100500Z 24006KT 15SM SKC M22/M25 A3012 RMK LAST STFD BOBS/NEXT 1400 UTC SLP269

TAF TAF CYLL
Valide du 10 à 06h jusqu'au 10 à 18h UTC


100539Z 1006/1018 24006KT P6SM SKC
FM101300 34006KT P6SM SCT020 RMK FCST BASED ON AUTO OBS. NXT FCST BY 101200Z



MET'MAP, la Météo Aéronautique d'un coup d'oeil ! - Copyright ORBIFLY Décembre 2007 - Disclaimer

ORBIFLY MET'MAP TEAM :

Programmation & Développement : Alexandra Zaïnal
Sur une idée originale de : Baudouin d'Aumeries
Assistance à la programmation : Marc-Olivier Méhu
Soutien technique & logistique : Manuel Goepfert

Contact : metmap@orbifly.com




SOURCES & CREDITS :

   NOAA       Earth
Advisory